Time;durP1;ratioP1;P1;durP2;ratioP2;P2;SDS_P1;SDS_P2;PMS_P1;PMS_P2;Temp;Humidity;BMP_temperature;BMP_pressure;BME280_temperature;BME280_humidity;BME280_pressure;Samples;Min_cycle;Max_cycle;Signal;HPM_P1;HPM_P2
2022/04/16 00:00:15;;;;;;;13.90;10.00;;;7.60;99.90;;;;;;4979864;28;20121;-66
2022/04/16 00:02:41;;;;;;;12.77;9.57;;;7.40;99.90;;;;;;4963443;28;20043;-66
2022/04/16 00:05:07;;;;;;;15.30;9.90;;;7.50;99.90;;;;;;4966719;28;20031;-66
2022/04/16 00:07:33;;;;;;;13.57;11.23;;;7.40;99.90;;;;;;4979463;28;20042;-66
2022/04/16 00:09:59;;;;;;;16.75;10.68;;;7.40;99.90;;;;;;4982425;28;20053;-66
2022/04/16 00:12:25;;;;;;;14.65;10.85;;;7.40;99.90;;;;;;4966873;28;20524;-66
2022/04/16 00:14:50;;;;;;;14.52;11.50;;;7.40;99.90;;;;;;4966233;28;20045;-65
2022/04/16 00:17:16;;;;;;;16.63;11.50;;;7.40;99.90;;;;;;4965728;28;20047;-66
2022/04/16 00:19:43;;;;;;;18.40;12.98;;;7.30;99.90;;;;;;4982623;28;20046;-66
2022/04/16 00:22:12;;;;;;;13.15;11.30;;;7.30;99.90;;;;;;4967787;28;20042;-66
2022/04/16 00:24:41;;;;;;;20.02;12.68;;;7.20;99.90;;;;;;4966193;28;20505;-66
2022/04/16 00:27:09;;;;;;;19.77;14.00;;;7.20;99.90;;;;;;4982085;28;20125;-66
2022/04/16 00:29:35;;;;;;;18.95;13.88;;;7.20;99.90;;;;;;4965103;28;20038;-65
2022/04/16 00:32:03;;;;;;;16.10;12.45;;;7.20;99.90;;;;;;4964236;28;20122;-66
2022/04/16 00:34:28;;;;;;;22.30;13.73;;;7.10;99.90;;;;;;4965676;28;20046;-66
2022/04/16 00:36:54;;;;;;;15.15;12.93;;;7.10;99.90;;;;;;4966599;28;20066;-66
2022/04/16 00:39:19;;;;;;;20.88;14.02;;;7.00;99.90;;;;;;4965984;28;20553;-66
2022/04/16 00:41:45;;;;;;;17.75;12.50;;;7.00;99.90;;;;;;4962441;28;20042;-66
2022/04/16 00:44:11;;;;;;;16.20;13.13;;;6.90;99.90;;;;;;4963749;28;20074;-65
2022/04/16 00:46:36;;;;;;;22.15;14.20;;;6.90;99.90;;;;;;4964134;28;20502;-65
2022/04/16 00:49:02;;;;;;;19.60;13.55;;;6.90;99.90;;;;;;4966267;28;20034;-66
2022/04/16 00:51:29;;;;;;;15.73;13.30;;;6.80;99.90;;;;;;4965046;28;20051;-66
2022/04/16 00:53:55;;;;;;;18.35;13.10;;;6.80;99.90;;;;;;4966854;28;20070;-65
2022/04/16 00:56:21;;;;;;;21.15;13.35;;;6.80;99.90;;;;;;4980043;28;20047;-66
2022/04/16 00:58:47;;;;;;;18.85;13.25;;;6.70;99.90;;;;;;4966352;28;20125;-66
2022/04/16 01:01:13;;;;;;;20.55;14.45;;;6.70;99.90;;;;;;4981085;28;20126;-66
2022/04/16 01:03:43;;;;;;;19.13;14.98;;;6.60;99.90;;;;;;4966309;28;20768;-66
2022/04/16 01:06:14;;;;;;;17.02;13.02;;;6.60;99.90;;;;;;4962612;28;20059;-66
2022/04/16 01:08:44;;;;;;;20.63;16.23;;;6.50;99.90;;;;;;4961944;28;20050;-65
2022/04/16 01:11:13;;;;;;;20.30;15.75;;;6.60;99.90;;;;;;4968342;28;20054;-66
2022/04/16 01:13:39;;;;;;;21.65;15.55;;;6.50;99.90;;;;;;4967553;28;20050;-66
2022/04/16 01:16:06;;;;;;;22.40;16.67;;;6.50;99.90;;;;;;4965624;28;20038;-66
2022/04/16 01:18:33;;;;;;;21.42;16.45;;;6.50;99.90;;;;;;4970012;28;20042;-66
2022/04/16 01:21:01;;;;;;;22.52;17.00;;;6.50;99.90;;;;;;4969524;28;20051;-66
2022/04/16 01:23:27;;;;;;;21.88;15.48;;;6.50;99.90;;;;;;4969144;28;20062;-66
2022/04/16 01:25:53;;;;;;;21.23;16.15;;;6.50;99.90;;;;;;4969856;28;20393;-66
2022/04/16 01:28:19;;;;;;;22.05;16.75;;;6.40;99.90;;;;;;4967572;28;20145;-66
2022/04/16 01:30:46;;;;;;;20.25;16.27;;;6.40;99.90;;;;;;4969401;28;20045;-65
2022/04/16 01:33:11;;;;;;;23.67;16.67;;;6.50;99.90;;;;;;4968477;28;20043;-65
2022/04/16 01:35:37;;;;;;;23.02;16.92;;;6.50;99.90;;;;;;4967671;28;20101;-66
2022/04/16 01:38:07;;;;;;;22.08;17.23;;;6.40;99.90;;;;;;4966802;28;20563;-66
2022/04/16 01:40:33;;;;;;;24.00;18.13;;;6.50;99.90;;;;;;4969098;28;20043;-65
2022/04/16 01:43:00;;;;;;;21.33;17.90;;;6.50;99.90;;;;;;4968644;28;20047;-66
2022/04/16 01:45:26;;;;;;;21.35;17.45;;;6.60;99.90;;;;;;4970622;28;20038;-65
2022/04/16 01:47:52;;;;;;;24.48;16.45;;;6.50;99.90;;;;;;4969545;28;20420;-66
2022/04/16 01:50:19;;;;;;;27.45;17.42;;;6.50;99.90;;;;;;4969204;28;20050;-65
2022/04/16 01:52:46;;;;;;;22.13;18.33;;;6.50;99.90;;;;;;4984365;28;20126;-65
2022/04/16 01:55:15;;;;;;;25.50;18.05;;;6.50;99.90;;;;;;4966961;28;20118;-66
2022/04/16 01:57:41;;;;;;;25.00;17.30;;;6.50;99.90;;;;;;4965401;28;20065;-65
2022/04/16 02:00:09;;;;;;;17.92;15.48;;;6.40;99.90;;;;;;4968055;28;20043;-65
2022/04/16 02:02:36;;;;;;;22.48;17.55;;;6.40;99.90;;;;;;4968497;28;20257;-65
2022/04/16 02:05:04;;;;;;;21.55;16.70;;;6.50;99.90;;;;;;4983789;28;20043;-65
2022/04/16 02:07:29;;;;;;;18.33;15.25;;;6.40;99.90;;;;;;4968348;28;20130;-66
2022/04/16 02:09:56;;;;;;;15.93;14.02;;;6.40;99.90;;;;;;4966659;28;22280;-65
2022/04/16 02:12:21;;;;;;;24.77;16.50;;;6.40;99.90;;;;;;4967637;28;20042;-65
2022/04/16 02:14:47;;;;;;;19.60;14.60;;;6.40;99.90;;;;;;4968459;28;20093;-65
2022/04/16 02:17:12;;;;;;;14.00;12.50;;;6.40;99.90;;;;;;4967674;28;20059;-66
2022/04/16 02:19:38;;;;;;;15.82;12.88;;;6.30;99.90;;;;;;4967211;28;20082;-65
2022/04/16 02:22:04;;;;;;;19.67;14.50;;;6.20;99.90;;;;;;4964424;28;20053;-66
2022/04/16 02:24:30;;;;;;;18.92;13.18;;;6.10;99.90;;;;;;4965684;28;20109;-65
2022/04/16 02:26:57;;;;;;;15.88;14.07;;;6.10;99.90;;;;;;4982492;28;20054;-65
2022/04/16 02:29:22;;;;;;;14.95;12.80;;;6.00;99.90;;;;;;4963597;28;20061;-65
2022/04/16 02:31:48;;;;;;;18.67;13.85;;;5.90;99.90;;;;;;4970159;28;20039;-65
2022/04/16 02:34:14;;;;;;;18.13;13.38;;;5.90;99.90;;;;;;4965475;28;20413;-65
2022/04/16 02:36:40;;;;;;;17.63;15.00;;;5.90;99.90;;;;;;4967123;28;20047;-65
2022/04/16 02:39:08;;;;;;;17.23;14.30;;;5.80;99.90;;;;;;4965494;28;20047;-65
2022/04/16 02:41:34;;;;;;;16.92;14.48;;;5.80;99.90;;;;;;4970021;28;20082;-65
2022/04/16 02:43:59;;;;;;;17.63;14.40;;;5.70;99.90;;;;;;4966734;28;20073;-65
2022/04/16 02:49:12;;;;;;;18.45;14.65;;;5.70;99.90;;;;;;4967777;28;20050;-66
2022/04/16 02:51:38;;;;;;;18.50;15.25;;;5.60;99.90;;;;;;4966740;28;20074;-65
2022/04/16 02:54:05;;;;;;;17.60;14.57;;;5.60;99.90;;;;;;4966800;28;20073;-65
2022/04/16 02:56:31;;;;;;;18.02;14.13;;;5.60;99.90;;;;;;4967730;28;20047;-65
2022/04/16 02:58:57;;;;;;;17.92;15.13;;;5.60;99.90;;;;;;4966926;28;20182;-66
2022/04/16 03:01:22;;;;;;;18.13;15.07;;;5.50;99.90;;;;;;4967335;28;20050;-65
2022/04/16 03:03:48;;;;;;;18.60;16.25;;;5.60;99.90;;;;;;4983799;28;20102;-65
2022/04/16 03:06:14;;;;;;;21.15;15.77;;;5.60;99.90;;;;;;4983447;28;20125;-65
2022/04/16 03:08:40;;;;;;;18.20;14.50;;;5.60;99.90;;;;;;4984829;28;20102;-66
2022/04/16 03:11:05;;;;;;;17.20;14.45;;;5.60;99.90;;;;;;4962436;28;20042;-65
2022/04/16 03:13:34;;;;;;;20.95;15.88;;;5.60;99.90;;;;;;4966248;28;20035;-65
2022/04/16 03:18:45;;;;;;;17.25;15.35;;;5.60;99.90;;;;;;4969132;28;20047;-65
2022/04/16 03:21:11;;;;;;;20.35;15.82;;;5.50;99.90;;;;;;4965487;28;20053;-65
2022/04/16 03:23:37;;;;;;;18.02;15.27;;;5.50;99.90;;;;;;4965823;28;20046;-65
2022/04/16 03:26:03;;;;;;;20.13;17.55;;;5.50;99.90;;;;;;4980176;28;20051;-65
2022/04/16 03:28:29;;;;;;;21.23;17.02;;;5.40;99.90;;;;;;4967350;28;20038;-65
2022/04/16 03:30:54;;;;;;;21.27;15.80;;;5.30;99.90;;;;;;4966767;28;20038;-65
2022/04/16 03:33:21;;;;;;;19.83;15.80;;;5.50;99.90;;;;;;4965500;28;20061;-65
2022/04/16 03:35:47;;;;;;;23.67;15.73;;;5.50;99.90;;;;;;4966236;28;20138;-65
2022/04/16 03:38:13;;;;;;;20.23;16.05;;;5.50;99.90;;;;;;4967495;28;20236;-65
2022/04/16 03:40:40;;;;;;;23.63;16.20;;;5.60;99.90;;;;;;4983047;28;20047;-65
2022/04/16 03:43:06;;;;;;;23.83;17.73;;;5.60;99.90;;;;;;4964879;28;20074;-65
2022/04/16 03:45:36;;;;;;;25.50;18.70;;;5.50;99.90;;;;;;4966671;28;20085;-65
2022/04/16 03:48:03;;;;;;;28.52;20.17;;;5.60;99.90;;;;;;4967015;28;20112;-65
2022/04/16 03:50:30;;;;;;;27.60;20.05;;;5.60;99.90;;;;;;4966992;28;20046;-65
2022/04/16 03:52:56;;;;;;;30.70;19.48;;;5.60;99.90;;;;;;4964480;28;20480;-65
2022/04/16 04:00:57;;;;;;;27.30;20.83;;;5.90;99.90;;;;;;4967933;28;20043;-65
2022/04/16 04:03:25;;;;;;;29.48;21.95;;;5.90;99.90;;;;;;4967601;28;20061;-65
2022/04/16 04:05:53;;;;;;;30.73;22.70;;;5.90;99.90;;;;;;4963506;28;20050;-65
2022/04/16 04:08:20;;;;;;;29.88;22.48;;;6.00;99.90;;;;;;4964529;28;20101;-65
2022/04/16 04:10:46;;;;;;;38.53;26.20;;;6.00;99.90;;;;;;4979571;28;20430;-65
2022/04/16 04:13:13;;;;;;;34.80;25.08;;;6.00;99.90;;;;;;4967328;28;20515;-65
2022/04/16 04:15:42;;;;;;;39.85;25.20;;;6.10;99.90;;;;;;4965028;28;20039;-65
2022/04/16 04:18:07;;;;;;;36.80;25.20;;;6.20;99.90;;;;;;4966568;28;20085;-65
2022/04/16 04:20:36;;;;;;;35.60;25.33;;;6.20;99.90;;;;;;4966604;28;20418;-65
2022/04/16 04:23:03;;;;;;;41.28;27.75;;;6.20;99.90;;;;;;4965706;28;20507;-65
2022/04/16 04:25:29;;;;;;;41.90;27.45;;;6.30;99.90;;;;;;4966081;28;20753;-65
2022/04/16 04:27:55;;;;;;;43.75;26.90;;;6.40;99.90;;;;;;4965527;28;20125;-66
2022/04/16 04:30:21;;;;;;;35.60;26.38;;;6.40;99.90;;;;;;4967969;28;20129;-66
2022/04/16 04:32:47;;;;;;;37.72;28.17;;;6.50;99.90;;;;;;4964179;28;20049;-65
2022/04/16 04:35:12;;;;;;;32.17;25.25;;;6.70;99.90;;;;;;4962470;28;20437;-66
2022/04/16 04:37:38;;;;;;;28.00;21.95;;;6.90;99.90;;;;;;4967951;28;20090;-65
2022/04/16 04:40:04;;;;;;;26.60;21.58;;;7.00;99.90;;;;;;4962137;28;20691;-65
2022/04/16 04:42:32;;;;;;;28.33;23.08;;;7.20;99.90;;;;;;4966757;28;20050;-65
2022/04/16 04:44:58;;;;;;;27.58;21.10;;;7.30;99.90;;;;;;4969831;28;20047;-66
2022/04/16 04:47:24;;;;;;;26.13;21.75;;;7.40;99.90;;;;;;4967611;28;20137;-65
2022/04/16 04:49:50;;;;;;;25.80;21.25;;;7.40;99.90;;;;;;4970229;28;20154;-65
2022/04/16 04:52:23;;;;;;;25.55;20.30;;;7.50;99.90;;;;;;4968753;28;20043;-66
2022/04/16 04:54:48;;;;;;;24.95;19.55;;;7.50;99.90;;;;;;4969483;28;20089;-65
2022/04/16 04:57:14;;;;;;;29.02;20.30;;;7.50;99.90;;;;;;4967934;28;20493;-65
2022/04/16 04:59:40;;;;;;;26.45;20.90;;;7.50;99.90;;;;;;4970598;28;20034;-65
2022/04/16 05:02:06;;;;;;;24.00;19.55;;;7.50;99.90;;;;;;4983989;28;20039;-65
2022/04/16 05:04:32;;;;;;;25.83;19.95;;;7.60;99.90;;;;;;4970238;28;20089;-65
2022/04/16 05:06:57;;;;;;;24.45;19.98;;;7.50;99.90;;;;;;4952723;28;20043;-65
2022/04/16 05:09:24;;;;;;;24.70;18.70;;;7.50;99.90;;;;;;4970655;28;20665;-65
2022/04/16 05:11:50;;;;;;;23.83;18.10;;;7.60;99.90;;;;;;4985613;28;20485;-65
2022/04/16 05:14:16;;;;;;;21.50;16.55;;;7.60;99.90;;;;;;4970757;28;20035;-65
2022/04/16 05:16:42;;;;;;;21.45;17.08;;;7.60;99.90;;;;;;4970828;28;20038;-65
2022/04/16 05:19:07;;;;;;;24.92;18.45;;;7.70;99.90;;;;;;4969942;28;20073;-65
2022/04/16 05:21:33;;;;;;;22.70;17.17;;;7.70;99.90;;;;;;4984832;28;20070;-65
2022/04/16 05:23:59;;;;;;;26.15;18.63;;;7.70;99.90;;;;;;4968513;28;20313;-65
2022/04/16 05:26:25;;;;;;;22.15;16.45;;;7.70;99.90;;;;;;4967453;28;20105;-65
2022/04/16 05:28:50;;;;;;;20.98;15.40;;;7.70;99.90;;;;;;4984208;28;20035;-65
2022/04/16 05:31:19;;;;;;;21.85;17.05;;;7.70;99.90;;;;;;4970285;28;20027;-65
2022/04/16 05:36:29;;;;;;;21.50;15.55;;;7.80;99.90;;;;;;4968413;28;20047;-65
2022/04/16 05:38:54;;;;;;;20.02;14.48;;;7.80;99.90;;;;;;4968941;28;20510;-65
2022/04/16 05:41:20;;;;;;;18.67;14.82;;;7.80;99.90;;;;;;4968502;28;20047;-65
2022/04/16 05:43:46;;;;;;;19.67;15.07;;;7.80;99.90;;;;;;4969609;28;20126;-65
2022/04/16 05:46:11;;;;;;;19.95;15.13;;;7.90;99.90;;;;;;4962256;28;20085;-64
2022/04/16 05:48:38;;;;;;;17.25;13.93;;;7.90;99.90;;;;;;4966729;28;20095;-65
2022/04/16 05:51:11;;;;;;;20.55;14.70;;;7.90;99.90;;;;;;4967477;28;20090;-65
2022/04/16 05:53:36;;;;;;;18.75;14.32;;;7.90;99.90;;;;;;4968637;28;21012;-65
2022/04/16 05:56:03;;;;;;;19.15;14.60;;;8.00;99.90;;;;;;4984960;28;20043;-65
2022/04/16 05:58:29;;;;;;;17.73;12.43;;;8.10;99.90;;;;;;4967717;28;20452;-65
2022/04/16 06:00:55;;;;;;;17.45;12.57;;;8.10;99.90;;;;;;4983503;28;20046;-65
2022/04/16 06:03:21;;;;;;;13.73;11.52;;;8.10;99.90;;;;;;4967037;28;20145;-65
2022/04/16 06:05:47;;;;;;;17.55;12.18;;;8.10;99.90;;;;;;4983820;28;20524;-65
2022/04/16 06:08:13;;;;;;;15.25;11.73;;;8.20;99.90;;;;;;4964390;28;20070;-64
2022/04/16 06:10:39;;;;;;;17.17;12.43;;;8.20;99.90;;;;;;4964476;28;20190;-65
2022/04/16 06:13:05;;;;;;;15.93;11.80;;;8.30;99.90;;;;;;4966301;28;20046;-65
2022/04/16 06:15:32;;;;;;;12.45;11.07;;;8.40;99.90;;;;;;4967209;28;20047;-65
2022/04/16 06:17:58;;;;;;;18.33;11.57;;;8.40;99.90;;;;;;4961668;28;20053;-65
2022/04/16 06:20:24;;;;;;;14.05;10.35;;;8.40;99.90;;;;;;4965997;28;20097;-65
2022/04/16 06:22:50;;;;;;;13.82;10.48;;;8.50;99.90;;;;;;4966255;28;20049;-65
2022/04/16 06:25:15;;;;;;;14.20;10.75;;;8.50;99.90;;;;;;4965851;28;20043;-65
2022/04/16 06:27:41;;;;;;;14.05;10.48;;;8.50;99.90;;;;;;4968953;28;20496;-65
2022/04/16 06:30:09;;;;;;;15.38;10.77;;;8.50;99.90;;;;;;4983078;28;20047;-65
2022/04/16 06:32:35;;;;;;;16.58;11.15;;;8.40;99.90;;;;;;4969243;28;20600;-65
2022/04/16 06:35:04;;;;;;;15.65;10.88;;;8.50;99.90;;;;;;4968305;28;20061;-65
2022/04/16 06:37:33;;;;;;;17.60;11.88;;;8.50;99.90;;;;;;4969451;28;20086;-65
2022/04/16 06:39:59;;;;;;;16.73;10.23;;;8.50;99.90;;;;;;4968037;28;20131;-65
2022/04/16 06:42:26;;;;;;;16.70;10.82;;;8.50;99.90;;;;;;4967649;28;20130;-64
2022/04/16 06:44:51;;;;;;;15.95;10.57;;;8.60;99.90;;;;;;4965255;28;20038;-65
2022/04/16 06:47:17;;;;;;;13.15;10.48;;;8.70;99.90;;;;;;4965509;28;20550;-65
2022/04/16 06:49:43;;;;;;;14.88;10.77;;;8.70;99.90;;;;;;4965903;28;20489;-65
2022/04/16 06:52:09;;;;;;;12.23;10.15;;;8.70;99.90;;;;;;4981907;28;20513;-65
2022/04/16 06:54:36;;;;;;;14.13;10.63;;;8.70;99.90;;;;;;4969068;28;20035;-65
2022/04/16 06:57:01;;;;;;;12.98;9.88;;;8.80;99.90;;;;;;4983135;28;20046;-65
2022/04/16 06:59:27;;;;;;;12.80;10.45;;;8.80;99.90;;;;;;4969198;28;20503;-65
2022/04/16 07:01:53;;;;;;;12.60;9.20;;;8.90;99.90;;;;;;4966956;28;20051;-65
2022/04/16 07:04:18;;;;;;;15.23;10.00;;;9.00;99.90;;;;;;4961755;28;20105;-65
2022/04/16 07:06:44;;;;;;;15.18;9.77;;;9.30;99.90;;;;;;4965063;28;20517;-69
2022/04/16 07:09:10;;;;;;;13.80;10.02;;;9.70;99.90;;;;;;4966817;28;20370;-69
2022/04/16 07:11:36;;;;;;;14.18;9.27;;;9.90;99.90;;;;;;4965590;28;20042;-69
2022/04/16 07:14:01;;;;;;;13.48;9.30;;;10.20;99.90;;;;;;4967198;28;20043;-69
2022/04/16 07:16:27;;;;;;;13.40;9.43;;;10.50;99.90;;;;;;4965513;28;20452;-69
2022/04/16 07:18:53;;;;;;;12.90;9.98;;;10.60;99.90;;;;;;4967756;28;20638;-69
2022/04/16 07:21:18;;;;;;;11.80;9.43;;;10.80;99.90;;;;;;4964312;28;20043;-69
2022/04/16 07:23:44;;;;;;;11.85;9.55;;;10.90;99.90;;;;;;4965376;28;20555;-69
2022/04/16 07:26:09;;;;;;;12.15;9.35;;;11.10;99.90;;;;;;4968421;28;20134;-69
2022/04/16 07:28:35;;;;;;;14.43;8.55;;;11.20;99.90;;;;;;4950303;28;20410;-69
2022/04/16 07:31:01;;;;;;;13.00;9.00;;;11.30;99.90;;;;;;4963582;28;20039;-69
2022/04/16 07:33:30;;;;;;;10.98;8.80;;;11.50;99.90;;;;;;4964052;28;20390;-69
2022/04/16 07:35:56;;;;;;;11.55;8.35;;;11.60;99.90;;;;;;4960914;28;20038;-69
2022/04/16 07:38:22;;;;;;;10.07;8.10;;;11.70;99.90;;;;;;4964048;28;20049;-69
2022/04/16 07:40:48;;;;;;;13.23;9.05;;;11.70;99.90;;;;;;4967765;28;20039;-69
2022/04/16 07:43:18;;;;;;;9.68;8.55;;;11.80;99.90;;;;;;4967934;28;20039;-69
2022/04/16 07:45:43;;;;;;;9.57;8.50;;;11.70;99.90;;;;;;4980574;28;20047;-69
2022/04/16 07:48:09;;;;;;;11.90;8.13;;;11.50;99.90;;;;;;4966506;28;20047;-69
2022/04/16 07:50:35;;;;;;;11.25;7.95;;;11.50;99.90;;;;;;4964174;28;20497;-69
2022/04/16 07:53:00;;;;;;;10.35;8.63;;;11.60;99.90;;;;;;4968127;28;20046;-69
2022/04/16 07:55:32;;;;;;;10.70;7.40;;;11.70;99.90;;;;;;4965011;28;20073;-69
2022/04/16 07:57:59;;;;;;;9.52;7.22;;;11.60;99.90;;;;;;4967354;28;20560;-69
2022/04/16 08:00:25;;;;;;;10.25;7.43;;;11.60;99.90;;;;;;4965821;28;20512;-69
2022/04/16 08:02:51;;;;;;;8.77;7.07;;;11.70;99.90;;;;;;4967017;28;20051;-69
2022/04/16 08:05:17;;;;;;;7.63;6.82;;;11.70;99.90;;;;;;4967204;28;20050;-69
2022/04/16 08:07:44;;;;;;;9.43;7.00;;;11.80;99.90;;;;;;4968604;28;20576;-69
2022/04/16 08:10:10;;;;;;;8.95;6.15;;;11.90;99.90;;;;;;4951055;28;20049;-69
2022/04/16 08:12:37;;;;;;;9.07;7.03;;;11.90;99.90;;;;;;4965104;28;20073;-69
2022/04/16 08:15:14;;;;;;;8.63;6.60;;;11.90;99.90;;;;;;4968086;28;20034;-69
2022/04/16 08:17:40;;;;;;;8.80;6.20;;;12.00;99.90;;;;;;4963478;28;20031;-69
2022/04/16 08:20:07;;;;;;;9.23;6.22;;;12.10;99.90;;;;;;4965225;28;20116;-69
2022/04/16 08:22:34;;;;;;;9.75;5.55;;;12.00;99.90;;;;;;4967115;28;20043;-69
2022/04/16 08:27:47;;;;;;;7.32;5.63;;;12.40;99.90;;;;;;4965571;28;20070;-69
2022/04/16 08:30:15;;;;;;;5.97;4.65;;;12.40;99.90;;;;;;4967910;28;20070;-69
2022/04/16 08:32:42;;;;;;;8.82;4.93;;;12.30;99.90;;;;;;4966362;28;20468;-69
2022/04/16 08:35:09;;;;;;;6.05;4.78;;;12.30;99.90;;;;;;4966604;28;20919;-69
2022/04/16 08:37:35;;;;;;;4.22;3.28;;;12.40;99.90;;;;;;4964080;28;20561;-69
2022/04/16 08:40:01;;;;;;;5.00;3.33;;;12.40;99.60;;;;;;4966728;28;20166;-69
2022/04/16 08:42:26;;;;;;;5.90;3.22;;;12.50;99.90;;;;;;4967877;28;20081;-69
2022/04/16 08:44:52;;;;;;;4.18;3.45;;;12.30;98.10;;;;;;4967362;28;20089;-69
2022/04/16 08:47:19;;;;;;;5.20;3.40;;;12.30;97.20;;;;;;4966814;28;20693;-69
2022/04/16 08:49:45;;;;;;;4.38;2.70;;;12.30;96.70;;;;;;4965280;28;20043;-69
2022/04/16 08:52:11;;;;;;;7.65;2.95;;;12.30;98.20;;;;;;4966112;28;20041;-69
2022/04/16 08:54:39;;;;;;;19.80;4.97;;;12.50;97.60;;;;;;4967502;28;20092;-69
2022/04/16 08:57:05;;;;;;;9.60;2.50;;;12.80;96.60;;;;;;4967176;28;20042;-69
2022/04/16 08:59:31;;;;;;;17.73;2.85;;;12.80;95.00;;;;;;4962333;28;20050;-68
2022/04/16 09:01:58;;;;;;;9.05;2.75;;;12.90;93.60;;;;;;4966638;28;20105;-69
2022/04/16 09:04:27;;;;;;;5.68;2.13;;;12.90;92.80;;;;;;4965951;28;20055;-69
2022/04/16 09:07:01;;;;;;;4.72;1.95;;;13.00;92.10;;;;;;4964590;28;20105;-68
2022/04/16 09:09:27;;;;;;;6.65;1.90;;;12.90;90.20;;;;;;4965482;28;20051;-68
2022/04/16 09:11:54;;;;;;;4.38;1.45;;;12.80;85.70;;;;;;4965874;28;20038;-68
2022/04/16 09:14:20;;;;;;;3.15;1.20;;;12.70;84.60;;;;;;4967212;28;20047;-68
2022/04/16 09:16:46;;;;;;;1.98;1.13;;;12.70;82.40;;;;;;4966571;28;20049;-68
2022/04/16 09:19:21;;;;;;;2.25;1.20;;;12.80;80.80;;;;;;4982272;28;21555;-68
2022/04/16 09:21:47;;;;;;;4.03;1.45;;;12.80;82.60;;;;;;4965607;28;20050;-68
2022/04/16 09:24:13;;;;;;;2.67;1.05;;;12.90;85.20;;;;;;4964677;28;20054;-68
2022/04/16 09:26:39;;;;;;;3.70;1.30;;;13.10;82.90;;;;;;4965832;28;20050;-67
2022/04/16 09:29:10;;;;;;;3.47;0.90;;;13.00;82.20;;;;;;4981109;28;20696;-68
2022/04/16 09:31:40;;;;;;;2.28;1.10;;;13.10;80.90;;;;;;4982317;28;20058;-67
2022/04/16 09:34:07;;;;;;;3.45;0.82;;;13.10;77.00;;;;;;4984674;28;20070;-68
2022/04/16 09:36:39;;;;;;;2.20;0.90;;;13.00;75.80;;;;;;4970173;28;20039;-68
2022/04/16 09:39:07;;;;;;;3.83;1.05;;;13.10;75.00;;;;;;4981901;28;20046;-68
2022/04/16 09:41:38;;;;;;;2.45;0.80;;;13.20;73.80;;;;;;4946431;28;20067;-68
2022/04/16 09:44:15;;;;;;;1.58;0.90;;;13.40;71.80;;;;;;4969364;28;20057;-68
2022/04/16 09:46:43;;;;;;;2.45;0.77;;;13.30;71.10;;;;;;4971828;28;20046;-68
2022/04/16 09:49:10;;;;;;;2.75;1.15;;;13.30;72.00;;;;;;4971006;28;20055;-69
2022/04/16 09:51:35;;;;;;;2.33;0.75;;;13.60;75.60;;;;;;4969669;28;20051;-68
2022/04/16 09:54:04;;;;;;;2.08;0.95;;;13.60;70.10;;;;;;4969513;28;20700;-68
2022/04/16 09:56:33;;;;;;;3.03;0.70;;;13.40;68.10;;;;;;4968656;28;20134;-68
2022/04/16 09:59:01;;;;;;;2.08;1.05;;;13.50;69.10;;;;;;4964491;28;20071;-68
2022/04/16 10:01:28;;;;;;;2.05;0.85;;;13.40;70.20;;;;;;4965966;28;20043;-68
2022/04/16 10:03:54;;;;;;;2.95;1.42;;;13.50;70.60;;;;;;4980798;28;20050;-68
2022/04/16 10:06:21;;;;;;;3.17;1.17;;;13.50;70.10;;;;;;4968882;28;20047;-68
2022/04/16 10:08:49;;;;;;;2.38;0.70;;;13.60;70.20;;;;;;4964248;28;20505;-68
2022/04/16 10:11:20;;;;;;;1.27;0.75;;;13.50;67.90;;;;;;4967391;28;21309;-68
2022/04/16 10:13:57;;;;;;;1.80;0.90;;;13.60;70.20;;;;;;4970426;28;20397;-67
2022/04/16 10:16:34;;;;;;;2.47;0.70;;;13.70;67.60;;;;;;4964028;28;20485;-68
2022/04/16 10:19:00;;;;;;;1.27;0.55;;;13.80;67.10;;;;;;4966315;28;20046;-68
2022/04/16 10:21:32;;;;;;;2.63;0.82;;;13.70;66.60;;;;;;4968289;28;20049;-68
2022/04/16 10:24:04;;;;;;;1.33;0.70;;;13.80;66.50;;;;;;4968745;28;20046;-68
2022/04/16 10:26:40;;;;;;;0.93;0.50;;;13.80;67.30;;;;;;4969235;28;20101;-68
2022/04/16 10:29:05;;;;;;;;;;;13.90;65.50;;;;;;4969607;28;20041;-68
2022/04/16 10:31:33;;;;;;;2.05;0.63;;;13.80;63.90;;;;;;4968318;28;19925;-68
2022/04/16 10:34:11;;;;;;;1.35;0.60;;;13.70;63.40;;;;;;4969794;28;20039;-68
2022/04/16 10:36:41;;;;;;;3.97;0.60;;;13.90;62.80;;;;;;4970785;28;20061;-68
2022/04/16 10:39:18;;;;;;;0.70;0.20;;;13.90;63.00;;;;;;4966466;28;20497;-68
2022/04/16 10:42:01;;;;;;;0.95;0.30;;;13.90;58.40;;;;;;4968162;28;20139;-68
2022/04/16 10:44:29;;;;;;;2.10;0.40;;;13.80;56.70;;;;;;4965571;28;20083;-68
2022/04/16 10:46:55;;;;;;;0.95;0.35;;;13.90;61.00;;;;;;4967689;28;20043;-68
2022/04/16 10:49:27;;;;;;;1.30;0.50;;;13.90;58.00;;;;;;4967732;28;20101;-68
2022/04/16 10:51:55;;;;;;;1.42;0.30;;;13.90;59.70;;;;;;4965350;28;20047;-67
2022/04/16 10:54:32;;;;;;;1.90;0.60;;;13.90;57.40;;;;;;4966912;28;20051;-67
2022/04/16 10:56:59;;;;;;;4.30;0.50;;;14.00;59.30;;;;;;4969025;28;20047;-68
2022/04/16 10:59:42;;;;;;;1.50;0.40;;;14.20;59.10;;;;;;4966590;28;20169;-68
2022/04/16 11:02:25;;;;;;;1.38;0.40;;;14.40;58.00;;;;;;4968281;28;20038;-68
2022/04/16 11:05:09;;;;;;;1.40;0.30;;;14.50;54.60;;;;;;4966774;28;20062;-67
2022/04/16 11:07:39;;;;;;;1.65;0.50;;;14.30;54.40;;;;;;4967370;28;20501;-67
2022/04/16 11:10:12;;;;;;;0.85;0.20;;;14.10;53.80;;;;;;4966988;28;20049;-67
2022/04/16 11:12:41;;;;;;;4.13;0.30;;;14.10;55.00;;;;;;4983690;28;20039;-67
2022/04/16 11:15:24;;;;;;;0.77;0.30;;;14.10;52.20;;;;;;4966830;28;20097;-67
2022/04/16 11:18:02;;;;;;;1.23;0.35;;;14.10;52.40;;;;;;4967877;28;20433;-68
2022/04/16 11:20:28;;;;;;;0.88;0.30;;;14.40;54.80;;;;;;4969822;28;20042;-68
2022/04/16 11:22:55;;;;;;;2.05;0.50;;;14.50;52.40;;;;;;4969426;28;20038;-68
2022/04/16 11:25:24;;;;;;;0.60;0.17;;;14.60;50.30;;;;;;4966644;28;20043;-68
2022/04/16 11:36:14;;;;;;;3.50;0.38;;;14.60;52.90;;;;;;4965553;28;20066;-68
2022/04/16 11:38:41;;;;;;;1.30;0.40;;;14.60;53.60;;;;;;4962882;28;20046;-68
2022/04/16 11:41:10;;;;;;;1.20;0.40;;;14.60;56.20;;;;;;4965920;28;20042;-68
2022/04/16 11:43:40;;;;;;;1.55;0.40;;;14.80;56.60;;;;;;4965455;28;20058;-68
2022/04/16 11:46:12;;;;;;;3.22;0.60;;;14.80;55.80;;;;;;4966792;28;20035;-68
2022/04/16 11:48:42;;;;;;;2.33;0.20;;;14.80;52.20;;;;;;4968860;28;20531;-68
2022/04/16 11:51:11;;;;;;;1.85;0.20;;;14.70;50.00;;;;;;4970010;28;20508;-68
2022/04/16 11:53:44;;;;;;;0.90;0.28;;;14.70;49.20;;;;;;4965697;28;20053;-68
2022/04/16 11:56:10;;;;;;;1.83;0.40;;;14.80;55.50;;;;;;4964512;28;20100;-68
2022/04/16 11:58:35;;;;;;;4.00;0.45;;;14.80;54.50;;;;;;4967218;28;20047;-68
2022/04/16 12:01:03;;;;;;;2.65;0.45;;;14.70;54.40;;;;;;4969846;28;20678;-68
2022/04/16 12:03:39;;;;;;;0.98;0.40;;;14.70;55.10;;;;;;4966374;28;20043;-68
2022/04/16 12:06:12;;;;;;;2.83;0.40;;;14.70;55.30;;;;;;4966144;28;20051;-68
2022/04/16 12:08:39;;;;;;;2.75;0.30;;;14.80;53.80;;;;;;4981461;28;20773;-69
2022/04/16 12:11:05;;;;;;;2.80;0.40;;;14.70;54.50;;;;;;4965874;28;20038;-69
2022/04/16 12:13:39;;;;;;;5.28;0.40;;;14.90;55.60;;;;;;4967619;28;20050;-69
2022/04/16 12:16:07;;;;;;;3.60;0.40;;;14.90;52.30;;;;;;4966080;28;20085;-69
2022/04/16 12:18:38;;;;;;;1.02;0.30;;;14.70;51.70;;;;;;4980241;28;20047;-69
2022/04/16 12:21:09;;;;;;;3.53;0.30;;;14.50;52.10;;;;;;4967418;28;20044;-69
2022/04/16 12:23:38;;;;;;;0.65;0.20;;;14.30;51.50;;;;;;4962929;28;20142;-69
2022/04/16 12:26:15;;;;;;;1.38;0.30;;;14.40;54.70;;;;;;4960761;28;20075;-69
2022/04/16 12:28:43;;;;;;;0.70;0.40;;;14.50;54.20;;;;;;4964709;28;20050;-68
2022/04/16 12:31:12;;;;;;;0.88;0.30;;;14.50;52.50;;;;;;4968442;28;20046;-70
2022/04/16 12:33:38;;;;;;;0.68;0.55;;;14.30;50.00;;;;;;4967145;28;20050;-68
2022/04/16 12:36:06;;;;;;;1.52;0.50;;;14.50;54.10;;;;;;4968289;28;20058;-69
2022/04/16 12:38:32;;;;;;;3.05;0.30;;;14.50;54.50;;;;;;4963691;28;20673;-68
2022/04/16 12:41:10;;;;;;;1.15;0.45;;;14.40;50.60;;;;;;4950493;28;20034;-73
2022/04/16 12:43:37;;;;;;;1.75;0.30;;;14.40;54.30;;;;;;4962027;28;20545;-70
2022/04/16 12:46:02;;;;;;;0.50;0.20;;;14.60;57.50;;;;;;4964020;28;20047;-71
2022/04/16 12:48:28;;;;;;;1.00;0.40;;;14.70;55.50;;;;;;4966823;28;20696;-69
2022/04/16 12:50:54;;;;;;;5.82;0.45;;;14.90;55.80;;;;;;4967524;28;20023;-70
2022/04/16 12:53:19;;;;;;;0.98;0.20;;;15.10;54.50;;;;;;4983695;28;20130;-72
2022/04/16 12:55:45;;;;;;;0.45;0.28;;;15.30;53.90;;;;;;4966873;28;20054;-72
2022/04/16 12:58:11;;;;;;;3.20;0.40;;;15.20;52.30;;;;;;4965737;28;20054;-72
2022/04/16 13:00:36;;;;;;;4.50;0.40;;;15.20;52.60;;;;;;4964417;28;20050;-73
2022/04/16 13:03:02;;;;;;;2.80;0.30;;;15.10;52.50;;;;;;4950810;28;20047;-72
2022/04/16 13:05:32;;;;;;;1.10;0.30;;;15.10;53.90;;;;;;4968806;28;20065;-73